Time;durP1;ratioP1;P1;durP2;ratioP2;P2;SDS_P1;SDS_P2;PMS_P1;PMS_P2;Temp;Humidity;BMP_temperature;BMP_pressure;BME280_temperature;BME280_humidity;BME280_pressure;Samples;Min_cycle;Max_cycle;Signal;HPM_P1;HPM_P2
2021/09/13 00:03:22;;;;;;;7.00;4.60;;;;;;;;;;8188793;28;20060;-72
2021/09/13 00:07:29;;;;;;;9.20;5.13;;;;;;;;;;8167672;28;20076;-73
2021/09/13 00:11:34;;;;;;;8.25;4.53;;;;;;;;;;8161396;28;20478;-74
2021/09/13 00:15:40;;;;;;;8.77;5.20;;;;;;;;;;8162082;28;20042;-74
2021/09/13 00:19:47;;;;;;;12.73;5.53;;;;;;;;;;8160679;28;20345;-73
2021/09/13 00:23:53;;;;;;;8.60;5.05;;;;;;;;;;8144214;28;20462;-73
2021/09/13 00:27:58;;;;;;;7.78;5.60;;;;;;;;;;8161267;28;20058;-75
2021/09/13 00:32:05;;;;;;;11.23;5.93;;;;;;;;;;8159353;28;20353;-73
2021/09/13 00:36:12;;;;;;;9.68;5.47;;;;;;;;;;8158811;28;20477;-74
2021/09/13 00:40:20;;;;;;;9.93;5.72;;;;;;;;;;8144204;28;20366;-73
2021/09/13 00:44:26;;;;;;;11.07;6.32;;;;;;;;;;8158619;28;20426;-74
2021/09/13 00:48:31;;;;;;;11.75;5.78;;;;;;;;;;8159583;28;20058;-75
2021/09/13 00:52:36;;;;;;;10.05;5.57;;;;;;;;;;8143627;28;20433;-74
2021/09/13 00:56:43;;;;;;;15.77;5.70;;;;;;;;;;8128015;28;20054;-73
2021/09/13 01:00:48;;;;;;;7.40;5.28;;;;;;;;;;8142865;28;20470;-74
2021/09/13 01:04:53;;;;;;;9.00;4.93;;;;;;;;;;8157441;28;20358;-73
2021/09/13 01:08:59;;;;;;;9.13;5.90;;;;;;;;;;8159898;28;20470;-73
2021/09/13 01:13:05;;;;;;;8.63;5.43;;;;;;;;;;8143463;28;20366;-73
2021/09/13 01:17:11;;;;;;;8.45;5.55;;;;;;;;;;8143563;28;20492;-73
2021/09/13 01:21:18;;;;;;;9.18;5.60;;;;;;;;;;8144134;28;20350;-73
2021/09/13 01:25:27;;;;;;;7.63;4.93;;;;;;;;;;8112209;28;20382;-73
2021/09/13 01:29:35;;;;;;;7.65;5.00;;;;;;;;;;8158090;28;20374;-74
2021/09/13 01:33:40;;;;;;;6.78;5.03;;;;;;;;;;8143707;28;20073;-74
2021/09/13 01:37:50;;;;;;;11.25;5.35;;;;;;;;;;8159127;28;20473;-73
2021/09/13 01:41:56;;;;;;;7.88;5.25;;;;;;;;;;8159549;28;20466;-75
2021/09/13 01:46:05;;;;;;;9.38;5.75;;;;;;;;;;8157208;28;20073;-74
2021/09/13 01:50:16;;;;;;;8.38;5.15;;;;;;;;;;8158491;28;20454;-74
2021/09/13 01:54:21;;;;;;;11.35;5.03;;;;;;;;;;8126502;28;20489;-74
2021/09/13 01:58:29;;;;;;;7.57;4.68;;;;;;;;;;8159717;28;20339;-75
2021/09/13 02:02:35;;;;;;;6.55;5.13;;;;;;;;;;8158229;28;20366;-73
2021/09/13 02:06:40;;;;;;;6.78;5.15;;;;;;;;;;8159233;28;20472;-75
2021/09/13 02:10:45;;;;;;;10.20;5.22;;;;;;;;;;8158745;28;20065;-74
2021/09/13 02:14:52;;;;;;;6.40;4.90;;;;;;;;;;8147119;28;20354;-75
2021/09/13 02:18:58;;;;;;;9.30;5.00;;;;;;;;;;8164489;28;20346;-75
2021/09/13 02:23:05;;;;;;;10.07;5.55;;;;;;;;;;8165952;28;20043;-74
2021/09/13 02:27:10;;;;;;;8.48;5.38;;;;;;;;;;8132335;28;20369;-76
2021/09/13 02:31:16;;;;;;;7.32;6.00;;;;;;;;;;8147451;28;20371;-74
2021/09/13 02:35:22;;;;;;;9.10;5.53;;;;;;;;;;8162364;28;20481;-74
2021/09/13 02:39:27;;;;;;;7.40;4.97;;;;;;;;;;8130549;28;20346;-75
2021/09/13 02:43:33;;;;;;;10.70;5.78;;;;;;;;;;8147066;28;20500;-75
2021/09/13 02:47:39;;;;;;;6.60;4.97;;;;;;;;;;8147847;28;20058;-75
2021/09/13 02:51:45;;;;;;;7.38;4.85;;;;;;;;;;8130217;28;20510;-74
2021/09/13 02:55:50;;;;;;;9.05;5.82;;;;;;;;;;8162396;28;20477;-75
2021/09/13 02:59:56;;;;;;;12.35;5.93;;;;;;;;;;8145638;28;20390;-75
2021/09/13 03:04:01;;;;;;;7.35;5.15;;;;;;;;;;8161758;28;20473;-75
2021/09/13 03:08:07;;;;;;;8.55;6.10;;;;;;;;;;8147436;28;20081;-76
2021/09/13 03:12:12;;;;;;;10.50;6.00;;;;;;;;;;8147349;28;20400;-74
2021/09/13 03:16:21;;;;;;;11.95;7.95;;;;;;;;;;8145065;28;20538;-74
2021/09/13 03:20:28;;;;;;;10.77;6.97;;;;;;;;;;8145634;28;20370;-74
2021/09/13 03:24:34;;;;;;;10.85;6.32;;;;;;;;;;8162362;28;20331;-76
2021/09/13 03:28:40;;;;;;;8.68;5.32;;;;;;;;;;8144398;28;20461;-75
2021/09/13 03:32:45;;;;;;;6.85;5.35;;;;;;;;;;8161120;28;20501;-75
2021/09/13 03:36:51;;;;;;;8.05;5.05;;;;;;;;;;8146141;28;20477;-74
2021/09/13 03:40:57;;;;;;;8.77;6.55;;;;;;;;;;8161096;28;20084;-76
2021/09/13 03:45:03;;;;;;;8.75;5.32;;;;;;;;;;8160592;28;20057;-74
2021/09/13 03:49:29;;;;;;;10.43;5.65;;;;;;;;;;8166525;28;20478;-74
2021/09/13 03:53:34;;;;;;;7.70;4.97;;;;;;;;;;8176866;28;20465;-76
2021/09/13 03:57:42;;;;;;;9.23;5.93;;;;;;;;;;8160946;28;20474;-74
2021/09/13 04:01:49;;;;;;;8.38;6.25;;;;;;;;;;8177289;28;20064;-75
2021/09/13 04:05:57;;;;;;;7.75;5.43;;;;;;;;;;8162562;28;20351;-76
2021/09/13 04:10:26;;;;;;;9.13;6.63;;;;;;;;;;8160608;28;20141;-75
2021/09/13 04:14:52;;;;;;;10.02;7.25;;;;;;;;;;8160020;28;20504;-74
2021/09/13 04:19:33;;;;;;;11.32;7.38;;;;;;;;;;8176135;28;20454;-75
2021/09/13 04:23:50;;;;;;;10.45;6.97;;;;;;;;;;8162352;28;20462;-76
2021/09/13 04:28:14;;;;;;;9.98;6.65;;;;;;;;;;8159390;28;20376;-75
2021/09/13 04:32:28;;;;;;;12.32;6.85;;;;;;;;;;8175184;28;20365;-76
2021/09/13 04:36:59;;;;;;;10.55;6.45;;;;;;;;;;8175781;28;20386;-76
2021/09/13 04:41:20;;;;;;;9.60;6.38;;;;;;;;;;8175837;28;20457;-74
2021/09/13 04:45:50;;;;;;;12.50;7.88;;;;;;;;;;8175910;28;20061;-75
2021/09/13 04:50:14;;;;;;;10.30;6.45;;;;;;;;;;8149011;28;20469;-75
2021/09/13 04:54:49;;;;;;;13.75;7.35;;;;;;;;;;8141718;28;20469;-75
2021/09/13 04:58:54;;;;;;;9.68;6.68;;;;;;;;;;8127794;28;20070;-75
2021/09/13 05:02:59;;;;;;;9.98;7.07;;;;;;;;;;8158986;28;20380;-74
2021/09/13 05:07:06;;;;;;;10.95;6.93;;;;;;;;;;8160047;28;20342;-76
2021/09/13 05:11:13;;;;;;;13.63;7.93;;;;;;;;;;8142289;28;20373;-75
2021/09/13 05:15:19;;;;;;;21.02;9.38;;;;;;;;;;8158633;28;20350;-75
2021/09/13 05:19:24;;;;;;;23.60;11.45;;;;;;;;;;8162633;28;20462;-74
2021/09/13 05:23:31;;;;;;;19.88;9.88;;;;;;;;;;8158511;28;20462;-75
2021/09/13 05:27:36;;;;;;;21.67;10.27;;;;;;;;;;8159599;28;20327;-74
2021/09/13 05:31:41;;;;;;;14.70;8.90;;;;;;;;;;8158986;28;20389;-75
2021/09/13 05:35:50;;;;;;;18.33;8.80;;;;;;;;;;8157690;28;20113;-75
2021/09/13 05:39:55;;;;;;;18.67;9.05;;;;;;;;;;8143226;28;20481;-74
2021/09/13 05:44:00;;;;;;;15.82;9.55;;;;;;;;;;8158343;28;20347;-74
2021/09/13 05:48:07;;;;;;;23.98;9.63;;;;;;;;;;8159882;28;20076;-74
2021/09/13 05:52:18;;;;;;;23.50;11.77;;;;;;;;;;8165329;28;20469;-74
2021/09/13 05:56:25;;;;;;;21.83;11.10;;;;;;;;;;8148148;28;20369;-75
2021/09/13 06:00:33;;;;;;;21.75;10.88;;;;;;;;;;8163063;28;20377;-75
2021/09/13 06:04:43;;;;;;;35.25;11.98;;;;;;;;;;8163572;28;20506;-74
2021/09/13 06:08:49;;;;;;;23.83;11.68;;;;;;;;;;8163049;28;20470;-74
2021/09/13 06:12:55;;;;;;;23.02;11.43;;;;;;;;;;8147979;28;20369;-75
2021/09/13 06:17:00;;;;;;;22.23;11.02;;;;;;;;;;8147694;28;20485;-74
2021/09/13 06:21:13;;;;;;;25.17;10.93;;;;;;;;;;8163605;28;20401;-74
2021/09/13 06:25:19;;;;;;;21.65;10.63;;;;;;;;;;8163643;28;20499;-75
2021/09/13 06:29:24;;;;;;;18.60;10.35;;;;;;;;;;8164405;28;20354;-74
2021/09/13 06:33:33;;;;;;;19.80;11.35;;;;;;;;;;8145802;28;20481;-74
2021/09/13 06:37:38;;;;;;;20.42;10.95;;;;;;;;;;8164068;28;20405;-74
2021/09/13 06:41:47;;;;;;;23.25;11.63;;;;;;;;;;8163467;28;20373;-75
2021/09/13 06:46:10;;;;;;;21.92;11.82;;;;;;;;;;8175346;28;20352;-74
2021/09/13 06:50:23;;;;;;;20.67;11.30;;;;;;;;;;8182171;28;20457;-73
2021/09/13 06:54:27;;;;;;;19.52;11.50;;;;;;;;;;8194502;28;20041;-74
2021/09/13 06:58:36;;;;;;;19.48;11.45;;;;;;;;;;8193035;28;20465;-75
2021/09/13 07:02:45;;;;;;;24.80;12.43;;;;;;;;;;8196315;28;20330;-74
2021/09/13 07:06:52;;;;;;;23.52;12.30;;;;;;;;;;8179055;28;20471;-74
2021/09/13 07:10:58;;;;;;;21.67;12.55;;;;;;;;;;8194359;28;20345;-74
2021/09/13 07:15:05;;;;;;;23.95;12.10;;;;;;;;;;8178342;28;20404;-73
2021/09/13 07:19:11;;;;;;;16.90;10.85;;;;;;;;;;8194993;28;20349;-74
2021/09/13 07:23:17;;;;;;;14.18;10.32;;;;;;;;;;8194720;28;20353;-73
2021/09/13 07:27:22;;;;;;;16.98;10.43;;;;;;;;;;8196224;28;20465;-73
2021/09/13 07:31:28;;;;;;;17.83;10.35;;;;;;;;;;8195089;28;20413;-73
2021/09/13 07:35:33;;;;;;;21.38;11.82;;;;;;;;;;8192874;28;20389;-73
2021/09/13 07:39:38;;;;;;;16.35;9.95;;;;;;;;;;8196014;28;20396;-73
2021/09/13 07:43:44;;;;;;;14.90;9.75;;;;;;;;;;8194604;28;20486;-72
2021/09/13 07:47:51;;;;;;;15.77;9.38;;;;;;;;;;8176011;28;20054;-74
2021/09/13 07:51:55;;;;;;;13.65;8.55;;;;;;;;;;8194596;28;20457;-72
2021/09/13 07:56:01;;;;;;;15.23;9.50;;;;;;;;;;8193602;28;20346;-73
2021/09/13 08:00:07;;;;;;;13.43;9.10;;;;;;;;;;8177481;28;20343;-72
2021/09/13 08:04:20;;;;;;;14.20;9.13;;;;;;;;;;8177329;28;20369;-73
2021/09/13 08:08:25;;;;;;;13.35;9.07;;;;;;;;;;8193873;28;20041;-73
2021/09/13 08:12:30;;;;;;;13.95;9.18;;;;;;;;;;8161115;28;20452;-72
2021/09/13 08:16:36;;;;;;;13.15;9.13;;;;;;;;;;8195365;28;20046;-73
2021/09/13 08:20:45;;;;;;;13.85;8.73;;;;;;;;;;8193565;28;20477;-73
2021/09/13 08:24:53;;;;;;;13.07;8.57;;;;;;;;;;8175711;28;20461;-72
2021/09/13 08:29:15;;;;;;;9.30;7.45;;;;;;;;;;8163748;28;20672;-72
2021/09/13 08:33:20;;;;;;;10.25;6.57;;;;;;;;;;8193803;28;20519;-74
2021/09/13 08:37:26;;;;;;;7.50;5.88;;;;;;;;;;8175846;28;20072;-73
2021/09/13 08:41:32;;;;;;;10.80;6.35;;;;;;;;;;8193344;28;20353;-73
2021/09/13 08:45:42;;;;;;;7.80;5.43;;;;;;;;;;8177298;28;20076;-73
2021/09/13 08:49:49;;;;;;;6.68;4.80;;;;;;;;;;8194281;28;20405;-72
2021/09/13 08:53:55;;;;;;;5.68;4.60;;;;;;;;;;8194520;28;20046;-72
2021/09/13 08:58:01;;;;;;;7.93;4.60;;;;;;;;;;8192518;28;20045;-72
2021/09/13 09:02:08;;;;;;;8.10;4.82;;;;;;;;;;8174075;28;20457;-73
2021/09/13 09:06:35;;;;;;;8.45;4.60;;;;;;;;;;8179009;28;20347;-73
2021/09/13 09:10:55;;;;;;;8.48;3.85;;;;;;;;;;8192342;28;20465;-72
2021/09/13 09:15:08;;;;;;;12.20;4.75;;;;;;;;;;8176158;28;20449;-72
2021/09/13 09:19:20;;;;;;;6.82;4.63;;;;;;;;;;8175195;28;20404;-73
2021/09/13 09:23:25;;;;;;;4.63;3.13;;;;;;;;;;8180165;28;20064;-72
2021/09/13 09:27:30;;;;;;;4.53;3.38;;;;;;;;;;8198578;28;20341;-73
2021/09/13 09:31:46;;;;;;;5.63;3.20;;;;;;;;;;8181088;28;20404;-74
2021/09/13 09:35:57;;;;;;;6.00;3.78;;;;;;;;;;8180803;28;20050;-73
2021/09/13 09:40:04;;;;;;;7.30;4.20;;;;;;;;;;8182377;28;20357;-72
2021/09/13 09:44:09;;;;;;;5.00;3.55;;;;;;;;;;8198774;28;20058;-73
2021/09/13 09:48:15;;;;;;;4.55;3.67;;;;;;;;;;8181886;28;20401;-72
2021/09/13 09:52:44;;;;;;;4.40;3.50;;;;;;;;;;8199988;28;20353;-73
2021/09/13 09:57:02;;;;;;;4.38;3.53;;;;;;;;;;8199378;28;20477;-72
2021/09/13 10:01:07;;;;;;;4.10;3.47;;;;;;;;;;8198535;28;20489;-73
2021/09/13 10:05:13;;;;;;;9.32;3.38;;;;;;;;;;8199539;28;20487;-73
2021/09/13 10:09:19;;;;;;;5.00;3.65;;;;;;;;;;8198742;28;20377;-73
2021/09/13 10:13:26;;;;;;;4.72;2.92;;;;;;;;;;8199815;28;20060;-73
2021/09/13 10:17:33;;;;;;;4.13;3.20;;;;;;;;;;8196824;28;20484;-74
2021/09/13 10:21:39;;;;;;;6.35;3.40;;;;;;;;;;8197892;28;20053;-73
2021/09/13 10:25:45;;;;;;;4.22;3.15;;;;;;;;;;8181801;28;20495;-72
2021/09/13 10:30:23;;;;;;;5.20;2.83;;;;;;;;;;8198429;28;20465;-73
2021/09/13 10:34:50;;;;;;;6.75;2.90;;;;;;;;;;8199108;28;20491;-73
2021/09/13 10:38:56;;;;;;;4.13;2.65;;;;;;;;;;8196573;28;20058;-72
2021/09/13 10:43:21;;;;;;;5.75;2.60;;;;;;;;;;8180960;28;20049;-73
2021/09/13 10:47:28;;;;;;;4.13;2.95;;;;;;;;;;8195949;28;20476;-72
2021/09/13 10:51:34;;;;;;;3.97;2.47;;;;;;;;;;8197692;28;20462;-73
2021/09/13 10:55:41;;;;;;;2.70;2.38;;;;;;;;;;8198348;28;20397;-72
2021/09/13 10:59:46;;;;;;;5.00;2.85;;;;;;;;;;8198496;28;20483;-73
2021/09/13 11:03:59;;;;;;;3.25;2.83;;;;;;;;;;8197113;28;20038;-72
2021/09/13 11:08:23;;;;;;;3.40;3.00;;;;;;;;;;8178659;28;20353;-74
2021/09/13 11:12:28;;;;;;;8.48;2.80;;;;;;;;;;8195884;28;20380;-73
2021/09/13 11:16:44;;;;;;;5.63;2.88;;;;;;;;;;8197190;28;20385;-73
2021/09/13 11:20:54;;;;;;;3.90;3.17;;;;;;;;;;8181690;28;20370;-73
2021/09/13 11:25:08;;;;;;;5.03;3.17;;;;;;;;;;8195346;28;20466;-73
2021/09/13 11:29:23;;;;;;;4.95;3.60;;;;;;;;;;8195327;28;20358;-72
2021/09/13 11:33:30;;;;;;;10.32;3.80;;;;;;;;;;8180118;28;20357;-72
2021/09/13 11:37:40;;;;;;;6.35;2.97;;;;;;;;;;8196667;28;20483;-72
2021/09/13 11:42:14;;;;;;;2.80;2.47;;;;;;;;;;8196277;28;20425;-74
2021/09/13 11:46:21;;;;;;;6.77;3.17;;;;;;;;;;8179251;28;20111;-73
2021/09/13 11:50:26;;;;;;;3.95;2.60;;;;;;;;;;8194035;28;20497;-72
2021/09/13 11:55:02;;;;;;;3.83;2.85;;;;;;;;;;8195958;28;20386;-73
2021/09/13 11:59:23;;;;;;;2.93;2.60;;;;;;;;;;8193422;28;20496;-73
2021/09/13 12:03:31;;;;;;;4.35;2.65;;;;;;;;;;8192849;28;20053;-73
2021/09/13 12:07:37;;;;;;;4.95;2.95;;;;;;;;;;8194820;28;20369;-74
2021/09/13 12:11:42;;;;;;;2.95;2.60;;;;;;;;;;8195364;28;20519;-73
2021/09/13 12:15:51;;;;;;;3.50;2.60;;;;;;;;;;8193544;28;20314;-72
2021/09/13 12:20:25;;;;;;;5.38;3.00;;;;;;;;;;8196107;28;20053;-72
2021/09/13 12:24:31;;;;;;;4.30;3.13;;;;;;;;;;8195423;28;20491;-71
2021/09/13 12:28:37;;;;;;;4.25;3.42;;;;;;;;;;8197465;28;20440;-72
2021/09/13 12:32:57;;;;;;;7.97;3.42;;;;;;;;;;8192613;28;20046;-72
2021/09/13 12:37:05;;;;;;;5.75;2.97;;;;;;;;;;8194288;28;20404;-73
2021/09/13 12:41:12;;;;;;;4.25;3.53;;;;;;;;;;8196174;28;20411;-73
2021/09/13 12:45:17;;;;;;;4.80;3.50;;;;;;;;;;8192978;28;20457;-73
2021/09/13 12:49:24;;;;;;;5.63;3.75;;;;;;;;;;8176181;28;20353;-73
2021/09/13 12:53:30;;;;;;;4.78;3.15;;;;;;;;;;8178237;28;20346;-73
2021/09/13 12:57:37;;;;;;;5.53;4.07;;;;;;;;;;8177459;28;20467;-73
2021/09/13 13:01:42;;;;;;;5.43;4.45;;;;;;;;;;8178697;28;20050;-75
2021/09/13 13:05:50;;;;;;;5.22;4.32;;;;;;;;;;8192941;28;20404;-72
2021/09/13 13:09:55;;;;;;;5.25;4.20;;;;;;;;;;8192543;28;20445;-73
2021/09/13 13:14:02;;;;;;;6.60;4.57;;;;;;;;;;8194253;28;20461;-72
2021/09/13 13:18:19;;;;;;;8.25;4.80;;;;;;;;;;8176104;28;20495;-72
2021/09/13 13:22:24;;;;;;;8.73;5.28;;;;;;;;;;8175230;28;20388;-72
2021/09/13 13:26:29;;;;;;;6.60;4.75;;;;;;;;;;8192453;28;20469;-73
2021/09/13 13:30:35;;;;;;;6.50;4.40;;;;;;;;;;8177877;28;20060;-73
2021/09/13 13:34:40;;;;;;;10.35;4.82;;;;;;;;;;8196364;28;20068;-72
2021/09/13 13:38:49;;;;;;;5.95;4.28;;;;;;;;;;8192164;28;20397;-73
2021/09/13 13:42:59;;;;;;;5.28;4.07;;;;;;;;;;8062541;29;20498;-72
2021/09/13 13:47:04;;;;;;;5.57;4.20;;;;;;;;;;8061485;29;20337;-71
2021/09/13 13:51:11;;;;;;;9.48;3.83;;;;;;;;;;8075069;29;20343;-72
2021/09/13 13:55:18;;;;;;;5.22;3.95;;;;;;;;;;8060787;29;20367;-72
2021/09/13 13:59:23;;;;;;;4.85;3.83;;;;;;;;;;8077983;29;20363;-73
2021/09/13 14:03:28;;;;;;;6.05;4.28;;;;;;;;;;8095046;29;20502;-72
2021/09/13 14:07:34;;;;;;;6.25;4.53;;;;;;;;;;8094158;28;20475;-73
2021/09/13 14:11:39;;;;;;;6.82;4.13;;;;;;;;;;8111267;28;20591;-72
2021/09/13 14:15:44;;;;;;;9.23;3.92;;;;;;;;;;8231751;28;20476;-72
2021/09/13 14:19:50;;;;;;;6.60;4.22;;;;;;;;;;8228361;28;20356;-72
2021/09/13 14:23:55;;;;;;;7.22;5.13;;;;;;;;;;8231824;28;20063;-72
2021/09/13 14:28:01;;;;;;;7.13;4.40;;;;;;;;;;8214777;28;20480;-72
2021/09/13 14:32:06;;;;;;;7.53;5.50;;;;;;;;;;8230773;28;20515;-72
2021/09/13 14:36:11;;;;;;;9.30;5.05;;;;;;;;;;8229203;28;20385;-72
2021/09/13 14:40:17;;;;;;;6.53;4.40;;;;;;;;;;8229455;28;20067;-73
2021/09/13 14:44:22;;;;;;;5.65;4.13;;;;;;;;;;8212490;28;20399;-72
2021/09/13 14:48:28;;;;;;;5.20;4.50;;;;;;;;;;8204217;28;20057;-72
2021/09/13 14:52:39;;;;;;;6.05;3.97;;;;;;;;;;8195119;28;20393;-73
2021/09/13 14:56:44;;;;;;;6.28;4.20;;;;;;;;;;8196411;28;20596;-72
2021/09/13 15:00:49;;;;;;;5.07;3.88;;;;;;;;;;8163024;28;20377;-72
2021/09/13 15:04:55;;;;;;;4.57;3.80;;;;;;;;;;8195191;28;20465;-72
2021/09/13 15:09:01;;;;;;;4.85;4.07;;;;;;;;;;8195640;28;20356;-72
2021/09/13 15:13:06;;;;;;;5.22;3.35;;;;;;;;;;8179188;28;20477;-72
2021/09/13 15:17:11;;;;;;;3.67;3.28;;;;;;;;;;8178766;28;20373;-72
2021/09/13 15:21:17;;;;;;;7.80;4.03;;;;;;;;;;8194910;28;20396;-72
2021/09/13 15:25:23;;;;;;;5.07;3.65;;;;;;;;;;8178093;28;20354;-72
2021/09/13 15:29:28;;;;;;;4.85;3.80;;;;;;;;;;8196898;28;20449;-72
2021/09/13 15:33:34;;;;;;;4.55;3.78;;;;;;;;;;8196281;28;20349;-73
2021/09/13 15:37:41;;;;;;;5.45;3.83;;;;;;;;;;8178291;28;20381;-73
2021/09/13 15:41:47;;;;;;;4.05;3.60;;;;;;;;;;8196509;28;20050;-72
2021/09/13 15:45:52;;;;;;;5.03;3.80;;;;;;;;;;8195191;28;20342;-73
2021/09/13 15:49:58;;;;;;;5.00;3.85;;;;;;;;;;8194140;28;20496;-72
2021/09/13 15:54:03;;;;;;;5.55;3.85;;;;;;;;;;8193789;28;20049;-72
2021/09/13 15:58:08;;;;;;;7.15;3.95;;;;;;;;;;8195986;28;20369;-72
2021/09/13 16:02:14;;;;;;;5.50;4.30;;;;;;;;;;8176973;28;20366;-72
2021/09/13 16:06:19;;;;;;;4.78;3.40;;;;;;;;;;8194921;28;20042;-73
2021/09/13 16:10:24;;;;;;;5.35;3.88;;;;;;;;;;8179201;28;20368;-72
2021/09/13 16:14:30;;;;;;;4.95;4.10;;;;;;;;;;8195888;28;20473;-71
2021/09/13 16:18:34;;;;;;;9.35;3.50;;;;;;;;;;8177428;28;20327;-71
2021/09/13 16:22:40;;;;;;;4.40;3.05;;;;;;;;;;8176634;28;20065;-73
2021/09/13 16:26:45;;;;;;;4.28;3.45;;;;;;;;;;8161582;28;20384;-72
2021/09/13 16:30:51;;;;;;;4.55;3.28;;;;;;;;;;8193995;28;20334;-72
2021/09/13 16:34:56;;;;;;;4.03;3.10;;;;;;;;;;8177620;28;20033;-73
2021/09/13 16:39:06;;;;;;;4.97;3.42;;;;;;;;;;8193520;28;20049;-72
2021/09/13 16:43:12;;;;;;;5.28;3.35;;;;;;;;;;8193335;28;20060;-72
2021/09/13 16:47:33;;;;;;;13.70;4.28;;;;;;;;;;8191467;28;20046;-72
2021/09/13 16:51:40;;;;;;;5.88;3.53;;;;;;;;;;8160533;28;20477;-71
2021/09/13 16:55:46;;;;;;;7.57;3.90;;;;;;;;;;8191580;28;20408;-73
2021/09/13 16:59:51;;;;;;;5.15;3.30;;;;;;;;;;8191280;28;20064;-72
2021/09/13 17:03:56;;;;;;;4.32;3.30;;;;;;;;;;8193372;28;20388;-71
2021/09/13 17:08:02;;;;;;;4.82;2.88;;;;;;;;;;8194207;28;20489;-72
2021/09/13 17:12:08;;;;;;;9.65;4.35;;;;;;;;;;8175231;28;20627;-72
2021/09/13 17:16:13;;;;;;;6.10;3.85;;;;;;;;;;8174705;28;20053;-71
2021/09/13 17:20:19;;;;;;;6.68;3.17;;;;;;;;;;8193024;28;20068;-72
2021/09/13 17:24:24;;;;;;;4.70;3.40;;;;;;;;;;8193679;28;20238;-72
2021/09/13 17:28:29;;;;;;;5.07;3.85;;;;;;;;;;8176568;28;20046;-72
2021/09/13 17:32:34;;;;;;;5.82;3.60;;;;;;;;;;8194043;28;20457;-71
2021/09/13 17:36:41;;;;;;;4.85;3.28;;;;;;;;;;8192681;28;20468;-72
2021/09/13 17:40:46;;;;;;;8.73;3.40;;;;;;;;;;8176043;28;20360;-73
2021/09/13 17:44:51;;;;;;;7.55;3.78;;;;;;;;;;8197975;28;20365;-72
2021/09/13 17:48:57;;;;;;;9.40;4.65;;;;;;;;;;8198503;28;20485;-72
2021/09/13 17:53:03;;;;;;;11.57;4.70;;;;;;;;;;8180638;28;20458;-73
2021/09/13 17:57:09;;;;;;;9.90;3.90;;;;;;;;;;8195879;28;20360;-72
2021/09/13 18:01:14;;;;;;;10.35;4.05;;;;;;;;;;8181071;28;20065;-72
2021/09/13 18:05:19;;;;;;;7.63;4.15;;;;;;;;;;8197863;28;20350;-72
2021/09/13 18:09:24;;;;;;;5.70;4.13;;;;;;;;;;8181719;28;20465;-72
2021/09/13 18:13:31;;;;;;;8.32;4.50;;;;;;;;;;8179751;28;20365;-72
2021/09/13 18:17:36;;;;;;;7.18;4.63;;;;;;;;;;8196235;28;20041;-71
2021/09/13 18:21:41;;;;;;;5.75;3.75;;;;;;;;;;8200632;28;20042;-71
2021/09/13 18:25:47;;;;;;;7.88;3.97;;;;;;;;;;8195754;28;20376;-73
2021/09/13 18:29:52;;;;;;;9.50;4.10;;;;;;;;;;8179808;28;20073;-72
2021/09/13 18:33:57;;;;;;;5.13;3.42;;;;;;;;;;8180175;28;20373;-73
2021/09/13 18:38:03;;;;;;;8.70;3.55;;;;;;;;;;8180409;28;20046;-71
2021/09/13 18:42:09;;;;;;;6.70;4.03;;;;;;;;;;8163215;28;20342;-72
2021/09/13 18:46:16;;;;;;;6.45;4.25;;;;;;;;;;8196912;28;20479;-72
2021/09/13 18:50:21;;;;;;;6.07;3.90;;;;;;;;;;8196280;28;20054;-72
2021/09/13 18:54:26;;;;;;;6.97;4.15;;;;;;;;;;8195250;28;20345;-71
2021/09/13 18:58:32;;;;;;;8.35;5.03;;;;;;;;;;8178973;28;20046;-73
2021/09/13 19:02:37;;;;;;;6.15;4.32;;;;;;;;;;8195350;28;20041;-72
2021/09/13 19:06:43;;;;;;;6.63;4.35;;;;;;;;;;8195594;28;20369;-72
2021/09/13 19:10:51;;;;;;;7.25;5.25;;;;;;;;;;8196826;28;20357;-71
2021/09/13 19:14:57;;;;;;;8.33;5.50;;;;;;;;;;8196426;28;20384;-71
2021/09/13 19:19:04;;;;;;;11.52;5.72;;;;;;;;;;8163105;28;20385;-73
2021/09/13 19:23:10;;;;;;;9.60;5.63;;;;;;;;;;8197751;28;20365;-73
2021/09/13 19:27:15;;;;;;;8.48;5.53;;;;;;;;;;8195271;28;20461;-72
2021/09/13 19:31:20;;;;;;;8.73;5.50;;;;;;;;;;8194498;28;20408;-73
2021/09/13 19:35:25;;;;;;;10.10;5.85;;;;;;;;;;8196303;28;20042;-72
2021/09/13 19:39:32;;;;;;;10.27;6.95;;;;;;;;;;8195775;28;20461;-72
2021/09/13 19:43:38;;;;;;;14.23;6.22;;;;;;;;;;8193171;28;20468;-71
2021/09/13 19:47:42;;;;;;;8.40;5.55;;;;;;;;;;8195383;28;20038;-73
2021/09/13 19:51:46;;;;;;;11.70;6.25;;;;;;;;;;8228792;28;20399;-72
2021/09/13 19:55:51;;;;;;;10.05;5.60;;;;;;;;;;8227431;28;20376;-73
2021/09/13 19:59:56;;;;;;;12.27;6.43;;;;;;;;;;8226553;28;20071;-72
2021/09/13 20:04:01;;;;;;;12.52;6.85;;;;;;;;;;8208927;28;20493;-72
2021/09/13 20:08:08;;;;;;;13.65;7.20;;;;;;;;;;8224406;28;20477;-73
2021/09/13 20:12:13;;;;;;;12.75;6.45;;;;;;;;;;8209079;28;20365;-72
2021/09/13 20:16:18;;;;;;;12.68;7.13;;;;;;;;;;8208661;28;20482;-72
2021/09/13 20:20:24;;;;;;;16.20;7.35;;;;;;;;;;8209248;28;20428;-72
2021/09/13 20:24:30;;;;;;;16.35;9.07;;;;;;;;;;8226743;28;20468;-72
2021/09/13 20:28:35;;;;;;;11.60;6.88;;;;;;;;;;8207068;28;20499;-72
2021/09/13 20:32:40;;;;;;;13.27;6.80;;;;;;;;;;8225534;28;20445;-73
2021/09/13 20:36:47;;;;;;;10.52;6.82;;;;;;;;;;8207892;28;20412;-72
2021/09/13 20:40:52;;;;;;;15.13;7.65;;;;;;;;;;8209310;28;20483;-73
2021/09/13 20:44:57;;;;;;;13.25;7.18;;;;;;;;;;8225321;28;20360;-72
2021/09/13 20:49:03;;;;;;;11.48;6.10;;;;;;;;;;8213993;28;20072;-71
2021/09/13 20:53:09;;;;;;;14.95;6.20;;;;;;;;;;8194199;28;20340;-72
2021/09/13 20:57:15;;;;;;;10.98;5.40;;;;;;;;;;8176712;28;20496;-72
2021/09/13 21:01:20;;;;;;;7.40;4.82;;;;;;;;;;8175357;28;20485;-73
2021/09/13 21:05:27;;;;;;;7.75;4.93;;;;;;;;;;8192855;28;20465;-72
2021/09/13 21:09:32;;;;;;;8.90;5.05;;;;;;;;;;8193118;28;20061;-72
2021/09/13 21:13:38;;;;;;;13.23;3.90;;;;;;;;;;8192663;28;20058;-72
2021/09/13 21:17:44;;;;;;;8.63;4.03;;;;;;;;;;8193147;28;20050;-72
2021/09/13 21:21:50;;;;;;;6.60;3.90;;;;;;;;;;8181180;28;20469;-73
2021/09/13 21:25:56;;;;;;;7.63;3.50;;;;;;;;;;8198630;28;20045;-73
2021/09/13 21:30:03;;;;;;;5.13;3.53;;;;;;;;;;8183612;28;20329;-72
2021/09/13 21:34:08;;;;;;;7.40;3.25;;;;;;;;;;8181774;28;20385;-73
2021/09/13 21:38:13;;;;;;;5.75;2.70;;;;;;;;;;8197901;28;20049;-72
2021/09/13 21:42:19;;;;;;;4.47;3.08;;;;;;;;;;8198847;28;20049;-72
2021/09/13 21:46:24;;;;;;;5.43;3.35;;;;;;;;;;8181437;28;20046;-72
2021/09/13 21:50:29;;;;;;;6.32;3.55;;;;;;;;;;8200036;28;20465;-72
2021/09/13 21:54:35;;;;;;;10.68;3.92;;;;;;;;;;8198223;28;20381;-72
2021/09/13 21:58:40;;;;;;;7.30;3.75;;;;;;;;;;8180500;28;20393;-72
2021/09/13 22:02:45;;;;;;;7.93;3.65;;;;;;;;;;8197929;28;20050;-72
2021/09/13 22:06:51;;;;;;;5.57;3.83;;;;;;;;;;8198223;28;20393;-72
2021/09/13 22:10:56;;;;;;;5.93;3.55;;;;;;;;;;8197951;28;20049;-72
2021/09/13 22:15:02;;;;;;;7.93;3.70;;;;;;;;;;8181182;28;20041;-73
2021/09/13 22:19:09;;;;;;;9.25;3.25;;;;;;;;;;8198578;28;20049;-72
2021/09/13 22:23:13;;;;;;;9.18;3.33;;;;;;;;;;8199050;28;20484;-72
2021/09/13 22:27:18;;;;;;;4.88;3.22;;;;;;;;;;8199702;28;20060;-72
2021/09/13 22:31:24;;;;;;;6.25;3.47;;;;;;;;;;8195701;28;20634;-72
2021/09/13 22:35:29;;;;;;;6.57;3.83;;;;;;;;;;8197143;28;20314;-72
2021/09/13 22:39:34;;;;;;;6.75;3.63;;;;;;;;;;8179770;28;20068;-73
2021/09/13 22:43:39;;;;;;;9.45;3.83;;;;;;;;;;8180094;28;20045;-73
2021/09/13 22:47:44;;;;;;;6.28;3.47;;;;;;;;;;8197766;28;20060;-72
2021/09/13 22:51:49;;;;;;;7.88;3.72;;;;;;;;;;8227781;28;20049;-72
2021/09/13 22:55:54;;;;;;;6.80;3.72;;;;;;;;;;8228577;28;20506;-72
2021/09/13 23:00:00;;;;;;;9.35;4.78;;;;;;;;;;8226870;28;20471;-72
2021/09/13 23:04:06;;;;;;;8.55;3.83;;;;;;;;;;8228211;28;20453;-72
2021/09/13 23:08:12;;;;;;;6.30;3.83;;;;;;;;;;8228599;28;20045;-72
2021/09/13 23:12:18;;;;;;;10.45;4.45;;;;;;;;;;8226699;28;20466;-72
2021/09/13 23:16:24;;;;;;;6.07;4.00;;;;;;;;;;8226251;28;20068;-72
2021/09/13 23:20:30;;;;;;;8.30;4.18;;;;;;;;;;8228439;28;20076;-72
2021/09/13 23:24:36;;;;;;;6.85;4.40;;;;;;;;;;8227076;28;20049;-73
2021/09/13 23:28:42;;;;;;;8.00;4.22;;;;;;;;;;8208978;28;20375;-72
2021/09/13 23:32:48;;;;;;;7.78;4.47;;;;;;;;;;8211067;28;20447;-72
2021/09/13 23:36:54;;;;;;;8.02;4.90;;;;;;;;;;8227649;28;20059;-73
2021/09/13 23:41:00;;;;;;;12.02;4.60;;;;;;;;;;8210008;28;20437;-72
2021/09/13 23:45:07;;;;;;;7.25;4.80;;;;;;;;;;8225682;28;20338;-72
2021/09/13 23:49:14;;;;;;;7.00;4.53;;;;;;;;;;8199327;28;20453;-72
2021/09/13 23:53:21;;;;;;;10.80;4.72;;;;;;;;;;8192419;28;20405;-73
2021/09/13 23:57:28;;;;;;;9.75;4.65;;;;;;;;;;8193388;28;20041;-73
